Etusivu
METAR-TAF:

METAR-TAF

Lentoasemat :

Pearson Field

Vancouver, Washington, Yhdysvallat

Leveyspiiri: 45-37-24N, Pituuspiiri: 122-39-23W, korkeus merenpinnasta: 7 m

Tämänhetkinen sää

Tämä raportti tehtiin 12 minuuttia sitten, kello 12.53 UTC
Tuuli 8 kn idästä/kaakosta
Lämpötila 8°C
Kosteus 87%
Ilmanpaine 1018 hPa
Näkyvyys: 8.0 km
Pilvistä 1200 ft:n korkeudessa
heikkoa sadetta, utua

METAR: KVUO 151253Z AUTO 11008KT 5SM -RA BR OVC012 08/06 A3006 RMK AO2 SLP180 P0006 T00830061

Aika: 05:05 (13:05 UTC)


TAF: puuttuu

Säähavainnot ja -ennusteet yli 4000 lentoasemalta (METAR- ja TAF-raportit).

Käytössä olevat sääasemat on merkitty karttaan keltaisilla ja punaisilla pisteillä.

Aseta hiiri pisteen päälle nähdäksesi sääaseman nimen.

Klikkaa sitten nähdäksesi säähavainnot ja -ennusteet.

Kartan vaihtaminen: klikkaa mustalla rastilla varustettuja vihreitä pisteitä, niin voit zoomata sisään; viivalla varustettua vihreää pistettä, niin voit zoomata ulos tai vihreitä nuolia, niin pääset viereisille kartoille.


METAR-TAF: